sensor_id;sensor_type;location;lat;lon;timestamp;pressure;altitude;pressure_sealevel;temperature;humidity
49030;BME280;43337;52.070;4.508;2022-09-01T00:01:43;102322.19;;;17.89;60.78
49030;BME280;43337;52.070;4.508;2022-09-01T00:04:11;102306.72;;;17.78;60.80
49030;BME280;43337;52.070;4.508;2022-09-01T00:06:38;102308.44;;;17.79;60.87
49030;BME280;43337;52.070;4.508;2022-09-01T00:09:10;102318.25;;;17.78;61.05
49030;BME280;43337;52.070;4.508;2022-09-01T00:11:38;102306.22;;;17.70;60.79
49030;BME280;43337;52.070;4.508;2022-09-01T00:14:04;102289.03;;;17.58;61.11
49030;BME280;43337;52.070;4.508;2022-09-01T00:16:31;102309.13;;;17.65;61.12
49030;BME280;43337;52.070;4.508;2022-09-01T00:18:57;102311.06;;;17.62;61.40
49030;BME280;43337;52.070;4.508;2022-09-01T00:21:28;102306.69;;;17.61;61.54
49030;BME280;43337;52.070;4.508;2022-09-01T00:23:54;102313.00;;;17.58;61.52
49030;BME280;43337;52.070;4.508;2022-09-01T00:26:20;102302.59;;;17.53;61.75
49030;BME280;43337;52.070;4.508;2022-09-01T00:28:45;102304.59;;;17.48;62.13
49030;BME280;43337;52.070;4.508;2022-09-01T00:31:11;102307.25;;;17.48;62.05
49030;BME280;43337;52.070;4.508;2022-09-01T00:33:39;102306.53;;;17.45;61.93
49030;BME280;43337;52.070;4.508;2022-09-01T00:36:05;102304.22;;;17.37;62.14
49030;BME280;43337;52.070;4.508;2022-09-01T00:38:32;102315.78;;;17.38;62.16
49030;BME280;43337;52.070;4.508;2022-09-01T00:40:57;102298.28;;;17.32;62.24
49030;BME280;43337;52.070;4.508;2022-09-01T00:43:41;102312.38;;;17.34;62.39
49030;BME280;43337;52.070;4.508;2022-09-01T00:46:11;102301.88;;;17.31;62.49
49030;BME280;43337;52.070;4.508;2022-09-01T00:48:37;102268.22;;;17.11;62.29
49030;BME280;43337;52.070;4.508;2022-09-01T00:51:05;102300.28;;;17.27;62.35
49030;BME280;43337;52.070;4.508;2022-09-01T00:53:32;102296.34;;;17.17;62.75
49030;BME280;43337;52.070;4.508;2022-09-01T00:55:58;102284.97;;;17.13;62.76
49030;BME280;43337;52.070;4.508;2022-09-01T00:58:24;102299.94;;;17.16;62.90
49030;BME280;43337;52.070;4.508;2022-09-01T01:00:51;102292.00;;;17.14;62.96
49030;BME280;43337;52.070;4.508;2022-09-01T01:03:17;102278.28;;;17.04;63.06
49030;BME280;43337;52.070;4.508;2022-09-01T01:05:47;102269.72;;;16.98;63.01
49030;BME280;43337;52.070;4.508;2022-09-01T01:08:24;102287.34;;;17.00;63.16
49030;BME280;43337;52.070;4.508;2022-09-01T01:11:01;102279.63;;;16.94;63.29
49030;BME280;43337;52.070;4.508;2022-09-01T01:13:27;102291.94;;;16.97;63.28
49030;BME280;43337;52.070;4.508;2022-09-01T01:15:54;102285.97;;;16.92;63.58
49030;BME280;43337;52.070;4.508;2022-09-01T01:18:19;102283.59;;;16.86;63.57
49030;BME280;43337;52.070;4.508;2022-09-01T01:20:45;102287.06;;;16.88;63.61
49030;BME280;43337;52.070;4.508;2022-09-01T01:23:47;102273.22;;;16.79;63.56
49030;BME280;43337;52.070;4.508;2022-09-01T01:26:15;102271.56;;;16.77;63.46
49030;BME280;43337;52.070;4.508;2022-09-01T01:28:42;102279.47;;;16.78;63.70
49030;BME280;43337;52.070;4.508;2022-09-01T01:31:15;102285.81;;;16.76;63.88
49030;BME280;43337;52.070;4.508;2022-09-01T01:33:55;102268.50;;;16.66;63.85
49030;BME280;43337;52.070;4.508;2022-09-01T01:36:27;102267.84;;;16.60;63.97
49030;BME280;43337;52.070;4.508;2022-09-01T01:39:08;102277.41;;;16.65;64.15
49030;BME280;43337;52.070;4.508;2022-09-01T01:41:36;102275.66;;;16.64;64.19
49030;BME280;43337;52.070;4.508;2022-09-01T01:44:05;102287.13;;;16.66;64.34
49030;BME280;43337;52.070;4.508;2022-09-01T01:46:34;102276.53;;;16.64;64.42
49030;BME280;43337;52.070;4.508;2022-09-01T01:48:59;102271.38;;;16.61;64.48
49030;BME280;43337;52.070;4.508;2022-09-01T01:51:28;102271.56;;;16.56;64.56
49030;BME280;43337;52.070;4.508;2022-09-01T01:53:56;102276.75;;;16.59;64.72
49030;BME280;43337;52.070;4.508;2022-09-01T01:56:24;102279.53;;;16.56;64.81
49030;BME280;43337;52.070;4.508;2022-09-01T01:58:51;102271.03;;;16.48;64.86
49030;BME280;43337;52.070;4.508;2022-09-01T02:01:19;102268.38;;;16.48;64.89
49030;BME280;43337;52.070;4.508;2022-09-01T02:03:46;102276.19;;;16.53;64.86
49030;BME280;43337;52.070;4.508;2022-09-01T02:06:12;102278.09;;;16.49;65.14
49030;BME280;43337;52.070;4.508;2022-09-01T02:08:38;102254.69;;;16.37;64.97
49030;BME280;43337;52.070;4.508;2022-09-01T02:11:05;102271.25;;;16.44;65.32
49030;BME280;43337;52.070;4.508;2022-09-01T02:13:31;102250.53;;;16.31;65.24
49030;BME280;43337;52.070;4.508;2022-09-01T02:16:05;102276.69;;;16.41;65.18
49030;BME280;43337;52.070;4.508;2022-09-01T02:18:34;102272.41;;;16.38;65.21
49030;BME280;43337;52.070;4.508;2022-09-01T02:21:04;102271.59;;;16.36;65.55
49030;BME280;43337;52.070;4.508;2022-09-01T02:23:35;102254.38;;;16.24;65.69
49030;BME280;43337;52.070;4.508;2022-09-01T02:26:00;102251.84;;;16.21;65.75
49030;BME280;43337;52.070;4.508;2022-09-01T02:28:27;102270.00;;;16.32;65.65
49030;BME280;43337;52.070;4.508;2022-09-01T02:30:55;102267.63;;;16.26;65.82
49030;BME280;43337;52.070;4.508;2022-09-01T02:33:22;102255.66;;;16.16;65.93
49030;BME280;43337;52.070;4.508;2022-09-01T02:35:55;102267.66;;;16.24;65.84
49030;BME280;43337;52.070;4.508;2022-09-01T02:38:22;102260.84;;;16.19;65.86
49030;BME280;43337;52.070;4.508;2022-09-01T02:40:51;102260.84;;;16.19;66.09
49030;BME280;43337;52.070;4.508;2022-09-01T02:43:18;102259.97;;;16.18;66.12
49030;BME280;43337;52.070;4.508;2022-09-01T02:45:48;102260.09;;;16.15;66.16
49030;BME280;43337;52.070;4.508;2022-09-01T02:48:20;102238.38;;;16.05;66.23
49030;BME280;43337;52.070;4.508;2022-09-01T02:50:49;102243.75;;;16.04;66.11
49030;BME280;43337;52.070;4.508;2022-09-01T02:53:14;102258.56;;;16.09;66.30
49030;BME280;43337;52.070;4.508;2022-09-01T02:55:43;102236.78;;;16.01;66.18
49030;BME280;43337;52.070;4.508;2022-09-01T02:58:09;102251.78;;;16.02;66.32
49030;BME280;43337;52.070;4.508;2022-09-01T03:00:43;102252.66;;;16.03;66.34
49030;BME280;43337;52.070;4.508;2022-09-01T03:03:09;102258.03;;;16.01;66.50
49030;BME280;43337;52.070;4.508;2022-09-01T03:05:37;102251.94;;;15.99;66.65
49030;BME280;43337;52.070;4.508;2022-09-01T03:08:06;102231.25;;;15.85;66.56
49030;BME280;43337;52.070;4.508;2022-09-01T03:10:36;102250.34;;;15.95;66.60
49030;BME280;43337;52.070;4.508;2022-09-01T03:13:10;102238.97;;;15.92;66.69
49030;BME280;43337;52.070;4.508;2022-09-01T03:15:36;102245.34;;;15.88;66.84
49030;BME280;43337;52.070;4.508;2022-09-01T03:18:04;102240.94;;;15.86;66.86
49030;BME280;43337;52.070;4.508;2022-09-01T03:20:32;102241.00;;;15.85;67.07
49030;BME280;43337;52.070;4.508;2022-09-01T03:22:59;102240.19;;;15.83;66.97
49030;BME280;43337;52.070;4.508;2022-09-01T03:25:25;102222.94;;;15.73;66.90
49030;BME280;43337;52.070;4.508;2022-09-01T03:27:53;102240.41;;;15.78;66.98
49030;BME280;43337;52.070;4.508;2022-09-01T03:30:19;102244.97;;;15.75;67.04
49030;BME280;43337;52.070;4.508;2022-09-01T03:32:45;102242.41;;;15.73;67.08
49030;BME280;43337;52.070;4.508;2022-09-01T03:35:12;102245.25;;;15.69;66.86
49030;BME280;43337;52.070;4.508;2022-09-01T03:37:38;102226.13;;;15.59;66.98
49030;BME280;43337;52.070;4.508;2022-09-01T03:40:05;102235.47;;;15.69;67.05
49030;BME280;43337;52.070;4.508;2022-09-01T03:42:34;102240.84;;;15.68;66.86
49030;BME280;43337;52.070;4.508;2022-09-01T03:45:00;102219.09;;;15.58;66.99
49030;BME280;43337;52.070;4.508;2022-09-01T03:47:33;102221.69;;;15.59;67.14
49030;BME280;43337;52.070;4.508;2022-09-01T03:50:04;102226.22;;;15.57;67.26
49030;BME280;43337;52.070;4.508;2022-09-01T03:52:29;102224.66;;;15.52;67.11
49030;BME280;43337;52.070;4.508;2022-09-01T03:54:54;102221.22;;;15.50;67.12
49030;BME280;43337;52.070;4.508;2022-09-01T03:57:23;102224.72;;;15.50;67.20
49030;BME280;43337;52.070;4.508;2022-09-01T03:59:50;102228.34;;;15.48;67.08
49030;BME280;43337;52.070;4.508;2022-09-01T04:02:18;102217.00;;;15.44;67.04
49030;BME280;43337;52.070;4.508;2022-09-01T04:04:44;102230.22;;;15.46;67.21
49030;BME280;43337;52.070;4.508;2022-09-01T04:07:09;102203.28;;;15.33;67.20
49030;BME280;43337;52.070;4.508;2022-09-01T04:09:35;102216.53;;;15.34;67.27
49030;BME280;43337;52.070;4.508;2022-09-01T04:12:03;102218.25;;;15.35;67.24
49030;BME280;43337;52.070;4.508;2022-09-01T04:14:33;102208.59;;;15.33;67.17
49030;BME280;43337;52.070;4.508;2022-09-01T04:16:59;102219.06;;;15.37;67.38
49030;BME280;43337;52.070;4.508;2022-09-01T04:19:42;102213.00;;;15.34;67.26
49030;BME280;43337;52.070;4.508;2022-09-01T04:22:08;102208.69;;;15.31;67.33
49030;BME280;43337;52.070;4.508;2022-09-01T04:24:37;102214.78;;;15.33;67.39
49030;BME280;43337;52.070;4.508;2022-09-01T04:27:06;102208.06;;;15.25;67.41
49030;BME280;43337;52.070;4.508;2022-09-01T04:29:33;102223.75;;;15.31;67.48
49030;BME280;43337;52.070;4.508;2022-09-01T04:32:04;102218.66;;;15.25;67.44
49030;BME280;43337;52.070;4.508;2022-09-01T04:34:34;102230.97;;;15.27;67.59
49030;BME280;43337;52.070;4.508;2022-09-01T04:37:22;102234.53;;;15.26;67.38
49030;BME280;43337;52.070;4.508;2022-09-01T04:39:52;102237.25;;;15.25;67.64
49030;BME280;43337;52.070;4.508;2022-09-01T04:42:19;102226.69;;;15.23;67.86
49030;BME280;43337;52.070;4.508;2022-09-01T04:44:49;102233.81;;;15.23;67.78
49030;BME280;43337;52.070;4.508;2022-09-01T04:47:15;102230.44;;;15.18;67.78
49030;BME280;43337;52.070;4.508;2022-09-01T04:49:42;102236.59;;;15.18;67.78
49030;BME280;43337;52.070;4.508;2022-09-01T04:52:12;102236.56;;;15.20;67.93
49030;BME280;43337;52.070;4.508;2022-09-01T04:54:38;102229.53;;;15.19;67.74
49030;BME280;43337;52.070;4.508;2022-09-01T04:57:04;102227.78;;;15.18;67.96
49030;BME280;43337;52.070;4.508;2022-09-01T04:59:31;102210.63;;;15.04;68.01
49030;BME280;43337;52.070;4.508;2022-09-01T05:01:58;102235.81;;;15.16;67.84
49030;BME280;43337;52.070;4.508;2022-09-01T05:04:27;102203.66;;;15.02;67.67
49030;BME280;43337;52.070;4.508;2022-09-01T05:06:57;102216.63;;;15.09;67.62
49030;BME280;43337;52.070;4.508;2022-09-01T05:09:27;102227.03;;;15.14;67.67
49030;BME280;43337;52.070;4.508;2022-09-01T05:11:54;102207.31;;;14.99;67.94
49030;BME280;43337;52.070;4.508;2022-09-01T05:14:21;102231.56;;;15.12;67.60
49030;BME280;43337;52.070;4.508;2022-09-01T05:16:48;102216.88;;;15.03;67.75
49030;BME280;43337;52.070;4.508;2022-09-01T05:19:15;102222.03;;;15.06;67.74
49030;BME280;43337;52.070;4.508;2022-09-01T05:21:43;102229.88;;;15.09;67.76
49030;BME280;43337;52.070;4.508;2022-09-01T05:24:14;102228.94;;;15.10;67.69
49030;BME280;43337;52.070;4.508;2022-09-01T05:26:40;102233.41;;;15.10;67.83
49030;BME280;43337;52.070;4.508;2022-09-01T05:29:24;102231.59;;;15.10;67.60
49030;BME280;43337;52.070;4.508;2022-09-01T05:31:51;102223.66;;;15.10;67.68
49030;BME280;43337;52.070;4.508;2022-09-01T05:34:16;102226.25;;;15.12;67.73
49030;BME280;43337;52.070;4.508;2022-09-01T05:36:51;102231.56;;;15.12;67.57
49030;BME280;43337;52.070;4.508;2022-09-01T05:39:17;102218.22;;;15.13;67.67
49030;BME280;43337;52.070;4.508;2022-09-01T05:41:43;102208.00;;;15.04;67.52
49030;BME280;43337;52.070;4.508;2022-09-01T05:44:10;102222.63;;;15.14;67.43
49030;BME280;43337;52.070;4.508;2022-09-01T05:46:37;102231.38;;;15.17;67.43
49030;BME280;43337;52.070;4.508;2022-09-01T05:49:05;102228.59;;;15.20;67.47
49030;BME280;43337;52.070;4.508;2022-09-01T05:51:40;102226.00;;;15.18;67.25
49030;BME280;43337;52.070;4.508;2022-09-01T05:54:07;102226.50;;;15.28;67.29
49030;BME280;43337;52.070;4.508;2022-09-01T05:56:34;102222.94;;;15.29;67.24
49030;BME280;43337;52.070;4.508;2022-09-01T05:59:02;102227.88;;;15.38;67.28
49030;BME280;43337;52.070;4.508;2022-09-01T06:01:29;102227.50;;;15.47;66.96
49030;BME280;43337;52.070;4.508;2022-09-01T06:03:59;102237.88;;;15.53;67.18
49030;BME280;43337;52.070;4.508;2022-09-01T06:06:46;102197.69;;;15.41;66.65
49030;BME280;43337;52.070;4.508;2022-09-01T06:09:14;102224.28;;;15.61;66.64
49030;BME280;43337;52.070;4.508;2022-09-01T06:11:48;102238.69;;;15.77;66.52
49030;BME280;43337;52.070;4.508;2022-09-01T06:14:19;102238.41;;;15.83;66.42
49030;BME280;43337;52.070;4.508;2022-09-01T06:16:44;102234.72;;;15.88;66.15
49030;BME280;43337;52.070;4.508;2022-09-01T06:19:11;102224.97;;;15.88;66.05
49030;BME280;43337;52.070;4.508;2022-09-01T06:21:38;102237.75;;;15.99;65.94
49030;BME280;43337;52.070;4.508;2022-09-01T06:24:04;102234.00;;;16.04;65.79
49030;BME280;43337;52.070;4.508;2022-09-01T06:26:33;102192.28;;;15.86;65.51
49030;BME280;43337;52.070;4.508;2022-09-01T06:29:02;102231.78;;;16.14;65.24
49030;BME280;43337;52.070;4.508;2022-09-01T06:31:33;102222.22;;;16.10;65.11
49030;BME280;43337;52.070;4.508;2022-09-01T06:34:05;102234.78;;;16.27;64.92
49030;BME280;43337;52.070;4.508;2022-09-01T06:36:31;102245.09;;;16.34;64.91
49030;BME280;43337;52.070;4.508;2022-09-01T06:38:58;102235.09;;;16.40;64.85
49030;BME280;43337;52.070;4.508;2022-09-01T06:41:27;102239.34;;;16.44;64.72
49030;BME280;43337;52.070;4.508;2022-09-01T06:43:53;102247.84;;;16.52;64.48
49030;BME280;43337;52.070;4.508;2022-09-01T06:46:20;102246.72;;;16.57;64.41
49030;BME280;43337;52.070;4.508;2022-09-01T06:48:46;102246.50;;;16.62;64.02
49030;BME280;43337;52.070;4.508;2022-09-01T06:51:17;102215.22;;;16.48;64.03
49030;BME280;43337;52.070;4.508;2022-09-01T06:53:43;102251.28;;;16.74;63.71
49030;BME280;43337;52.070;4.508;2022-09-01T06:56:10;102252.75;;;16.81;63.73
49030;BME280;43337;52.070;4.508;2022-09-01T06:58:40;102257.63;;;16.91;63.36
49030;BME280;43337;52.070;4.508;2022-09-01T07:01:08;102254.59;;;16.98;63.49
49030;BME280;43337;52.070;4.508;2022-09-01T07:03:39;102256.03;;;17.05;63.29
49030;BME280;43337;52.070;4.508;2022-09-01T07:06:05;102254.75;;;17.14;63.02
49030;BME280;43337;52.070;4.508;2022-09-01T07:08:32;102247.34;;;17.21;62.41
49030;BME280;43337;52.070;4.508;2022-09-01T07:11:06;102257.63;;;17.28;62.53
49030;BME280;43337;52.070;4.508;2022-09-01T07:13:33;102231.22;;;17.24;62.39
49030;BME280;43337;52.070;4.508;2022-09-01T07:16:02;102232.72;;;17.29;62.02
49030;BME280;43337;52.070;4.508;2022-09-01T07:18:31;102256.50;;;17.51;61.99
49030;BME280;43337;52.070;4.508;2022-09-01T07:20:57;102244.84;;;17.54;61.71
49030;BME280;43337;52.070;4.508;2022-09-01T07:23:22;102257.66;;;17.65;61.69
49030;BME280;43337;52.070;4.508;2022-09-01T07:25:49;102252.00;;;17.71;61.48
49030;BME280;43337;52.070;4.508;2022-09-01T07:28:20;102250.94;;;17.75;61.08
49030;BME280;43337;52.070;4.508;2022-09-01T07:30:50;102251.34;;;17.85;61.14
49030;BME280;43337;52.070;4.508;2022-09-01T07:33:18;102242.25;;;17.89;61.05
49030;BME280;43337;52.070;4.508;2022-09-01T07:35:48;102248.91;;;17.97;60.66
49030;BME280;43337;52.070;4.508;2022-09-01T07:38:14;102253.78;;;18.07;60.22
49030;BME280;43337;52.070;4.508;2022-09-01T07:40:40;102247.66;;;18.04;60.21
49030;BME280;43337;52.070;4.508;2022-09-01T07:43:13;102253.31;;;18.16;60.14
49030;BME280;43337;52.070;4.508;2022-09-01T07:45:43;102236.50;;;18.14;60.07
49030;BME280;43337;52.070;4.508;2022-09-01T07:48:10;102252.59;;;18.29;59.85
49030;BME280;43337;52.070;4.508;2022-09-01T07:50:41;102254.06;;;18.35;59.67
49030;BME280;43337;52.070;4.508;2022-09-01T07:53:17;102232.91;;;18.32;59.62
49030;BME280;43337;52.070;4.508;2022-09-01T07:55:46;102237.28;;;18.33;59.35
49030;BME280;43337;52.070;4.508;2022-09-01T07:58:14;102258.84;;;18.46;59.44
49030;BME280;43337;52.070;4.508;2022-09-01T08:00:40;102258.44;;;18.53;59.59
49030;BME280;43337;52.070;4.508;2022-09-01T08:03:11;102248.47;;;18.57;59.43
49030;BME280;43337;52.070;4.508;2022-09-01T08:05:36;102257.63;;;18.69;59.32
49030;BME280;43337;52.070;4.508;2022-09-01T08:08:02;102239.88;;;18.68;59.33
49030;BME280;43337;52.070;4.508;2022-09-01T08:10:28;102248.38;;;18.76;59.08
49030;BME280;43337;52.070;4.508;2022-09-01T08:12:53;102257.41;;;18.89;58.80
49030;BME280;43337;52.070;4.508;2022-09-01T08:15:18;102261.47;;;18.96;58.54
49030;BME280;43337;52.070;4.508;2022-09-01T08:17:44;102256.47;;;19.06;58.46
49030;BME280;43337;52.070;4.508;2022-09-01T08:20:11;102261.66;;;19.09;58.44
49030;BME280;43337;52.070;4.508;2022-09-01T08:22:36;102261.06;;;19.20;58.25
49030;BME280;43337;52.070;4.508;2022-09-01T08:25:07;102269.22;;;19.33;58.36
49030;BME280;43337;52.070;4.508;2022-09-01T08:27:34;102258.97;;;19.41;58.10
49030;BME280;43337;52.070;4.508;2022-09-01T08:30:09;102254.56;;;19.56;57.83
49030;BME280;43337;52.070;4.508;2022-09-01T08:32:35;102254.94;;;19.65;57.50
49030;BME280;43337;52.070;4.508;2022-09-01T08:35:02;102262.41;;;19.74;56.91
49030;BME280;43337;52.070;4.508;2022-09-01T08:37:29;102251.28;;;19.82;56.91
49030;BME280;43337;52.070;4.508;2022-09-01T08:39:55;102262.19;;;19.93;56.44
49030;BME280;43337;52.070;4.508;2022-09-01T08:47:29;102268.66;;;20.19;56.03
49030;BME280;43337;52.070;4.508;2022-09-01T08:49:55;102264.50;;;20.30;55.80
49030;BME280;43337;52.070;4.508;2022-09-01T08:55:31;102259.81;;;20.47;55.20
49030;BME280;43337;52.070;4.508;2022-09-01T08:57:59;102262.44;;;20.63;55.07
49030;BME280;43337;52.070;4.508;2022-09-01T09:00:28;102245.16;;;20.69;55.01
49030;BME280;43337;52.070;4.508;2022-09-01T09:09:07;102252.16;;;21.13;52.96
49030;BME280;43337;52.070;4.508;2022-09-01T09:14:10;102243.78;;;21.32;52.41
49030;BME280;43337;52.070;4.508;2022-09-01T09:16:47;102244.16;;;21.40;52.31
49030;BME280;43337;52.070;4.508;2022-09-01T09:21:56;102234.81;;;21.60;52.27
49030;BME280;43337;52.070;4.508;2022-09-01T09:24:53;102228.72;;;21.70;52.38
49030;BME280;43337;52.070;4.508;2022-09-01T09:29:49;102229.66;;;21.97;51.59
49030;BME280;43337;52.070;4.508;2022-09-01T09:32:15;102227.22;;;22.06;51.02
49030;BME280;43337;52.070;4.508;2022-09-01T09:34:41;102218.72;;;22.12;50.42
49030;BME280;43337;52.070;4.508;2022-09-01T09:37:29;102219.63;;;22.26;48.39
49030;BME280;43337;52.070;4.508;2022-09-01T09:42:31;102220.25;;;22.42;49.63
49030;BME280;43337;52.070;4.508;2022-09-01T09:44:57;102213.38;;;22.51;49.35
49030;BME280;43337;52.070;4.508;2022-09-01T09:47:39;102215.50;;;22.58;46.22
49030;BME280;43337;52.070;4.508;2022-09-01T09:52:42;102200.56;;;22.67;48.74
49030;BME280;43337;52.070;4.508;2022-09-01T09:55:26;102208.06;;;22.87;48.15
49030;BME280;43337;52.070;4.508;2022-09-01T09:57:57;102190.84;;;22.90;47.89
49030;BME280;43337;52.070;4.508;2022-09-01T10:00:27;102203.72;;;23.10;47.69
49030;BME280;43337;52.070;4.508;2022-09-01T10:02:59;102195.09;;;23.18;46.27
49030;BME280;43337;52.070;4.508;2022-09-01T10:05:41;102198.56;;;23.31;47.00
49030;BME280;43337;52.070;4.508;2022-09-01T10:08:11;102199.47;;;23.43;45.71
49030;BME280;43337;52.070;4.508;2022-09-01T10:10:49;102173.16;;;23.35;43.66
49030;BME280;43337;52.070;4.508;2022-09-01T10:13:21;102195.22;;;23.52;45.30
49030;BME280;43337;52.070;4.508;2022-09-01T10:15:52;102195.28;;;23.63;45.28
49030;BME280;43337;52.070;4.508;2022-09-01T10:18:24;102195.69;;;23.70;44.32
49030;BME280;43337;52.070;4.508;2022-09-01T10:20:59;102208.28;;;23.69;43.70
49030;BME280;43337;52.070;4.508;2022-09-01T10:23:25;102187.00;;;23.66;41.93
49030;BME280;43337;52.070;4.508;2022-09-01T10:25:59;102177.88;;;23.69;43.80
49030;BME280;43337;52.070;4.508;2022-09-01T10:28:26;102194.66;;;23.83;43.62
49030;BME280;43337;52.070;4.508;2022-09-01T10:30:53;102181.44;;;23.80;42.47
49030;BME280;43337;52.070;4.508;2022-09-01T10:33:21;102181.56;;;23.90;42.41
49030;BME280;43337;52.070;4.508;2022-09-01T10:35:52;102187.69;;;23.92;42.57
49030;BME280;43337;52.070;4.508;2022-09-01T10:38:22;102179.50;;;23.94;42.17
49030;BME280;43337;52.070;4.508;2022-09-01T10:40:49;102181.94;;;23.97;42.05
49030;BME280;43337;52.070;4.508;2022-09-01T10:43:44;102187.09;;;24.00;41.55
49030;BME280;43337;52.070;4.508;2022-09-01T10:48:47;102183.94;;;24.17;42.21
49030;BME280;43337;52.070;4.508;2022-09-01T10:53:39;102180.53;;;24.38;42.04
49030;BME280;43337;52.070;4.508;2022-09-01T10:56:43;102186.91;;;24.48;41.18
49030;BME280;43337;52.070;4.508;2022-09-01T11:04:15;102164.13;;;24.74;41.16
49030;BME280;43337;52.070;4.508;2022-09-01T11:09:19;102165.81;;;24.87;40.51
49030;BME280;43337;52.070;4.508;2022-09-01T11:11:50;102168.00;;;24.93;38.66
49030;BME280;43337;52.070;4.508;2022-09-01T11:14:22;102171.91;;;25.00;39.61
49030;BME280;43337;52.070;4.508;2022-09-01T11:27:03;102169.69;;;25.16;38.85
49030;BME280;43337;52.070;4.508;2022-09-01T11:30:07;102167.25;;;25.02;39.23
49030;BME280;43337;52.070;4.508;2022-09-01T11:32:34;102163.31;;;25.06;39.33
49030;BME280;43337;52.070;4.508;2022-09-01T11:35:03;102146.19;;;25.07;38.69
49030;BME280;43337;52.070;4.508;2022-09-01T11:37:31;102152.91;;;25.13;39.14
49030;BME280;43337;52.070;4.508;2022-09-01T11:39:59;102140.97;;;25.26;39.33
49030;BME280;43337;52.070;4.508;2022-09-01T11:42:32;102159.16;;;25.45;39.00
49030;BME280;43337;52.070;4.508;2022-09-01T11:47:39;102152.19;;;25.64;37.87
49030;BME280;43337;52.070;4.508;2022-09-01T11:52:40;102158.72;;;25.82;37.05
49030;BME280;43337;52.070;4.508;2022-09-01T11:55:06;102145.72;;;25.87;37.00
49030;BME280;43337;52.070;4.508;2022-09-01T11:57:37;102156.94;;;25.92;37.07
49030;BME280;43337;52.070;4.508;2022-09-01T12:00:06;102134.91;;;25.87;37.23
49030;BME280;43337;52.070;4.508;2022-09-01T12:02:34;102154.44;;;26.00;36.83
49030;BME280;43337;52.070;4.508;2022-09-01T12:05:02;102138.44;;;26.09;36.80
49030;BME280;43337;52.070;4.508;2022-09-01T12:07:44;102128.53;;;26.19;36.39
49030;BME280;43337;52.070;4.508;2022-09-01T12:10:21;102144.38;;;26.33;35.48
49030;BME280;43337;52.070;4.508;2022-09-01T12:12:59;102137.03;;;26.45;36.01
49030;BME280;43337;52.070;4.508;2022-09-01T12:15:25;102122.56;;;26.46;35.66
49030;BME280;43337;52.070;4.508;2022-09-01T12:17:52;102127.00;;;26.66;35.20
49030;BME280;43337;52.070;4.508;2022-09-01T12:20:36;102126.31;;;26.74;35.47
49030;BME280;43337;52.070;4.508;2022-09-01T12:23:27;102118.94;;;26.76;34.45
49030;BME280;43337;52.070;4.508;2022-09-01T12:25:55;102129.13;;;26.63;34.41
49030;BME280;43337;52.070;4.508;2022-09-01T12:28:27;102132.50;;;26.45;33.12
49030;BME280;43337;52.070;4.508;2022-09-01T12:30:55;102133.25;;;26.26;34.01
49030;BME280;43337;52.070;4.508;2022-09-01T12:33:23;102114.97;;;26.09;34.11
49030;BME280;43337;52.070;4.508;2022-09-01T12:35:50;102119.94;;;26.04;33.97
49030;BME280;43337;52.070;4.508;2022-09-01T12:38:28;102119.75;;;25.96;33.65
49030;BME280;43337;52.070;4.508;2022-09-01T12:40:55;102120.63;;;25.96;34.41
49030;BME280;43337;52.070;4.508;2022-09-01T12:43:34;102120.53;;;26.08;34.14
49030;BME280;43337;52.070;4.508;2022-09-01T12:46:01;102105.91;;;26.10;33.92
49030;BME280;43337;52.070;4.508;2022-09-01T12:48:39;102125.00;;;26.28;33.44
49030;BME280;43337;52.070;4.508;2022-09-01T12:51:24;102114.84;;;26.41;33.72
49030;BME280;43337;52.070;4.508;2022-09-01T12:53:55;102114.88;;;26.51;32.95
49030;BME280;43337;52.070;4.508;2022-09-01T12:56:35;102107.66;;;26.61;33.38
49030;BME280;43337;52.070;4.508;2022-09-01T12:59:12;102104.38;;;26.67;32.97
49030;BME280;43337;52.070;4.508;2022-09-01T13:01:40;102111.97;;;26.83;33.31
49030;BME280;43337;52.070;4.508;2022-09-01T13:04:23;102102.59;;;26.87;32.78
49030;BME280;43337;52.070;4.508;2022-09-01T13:06:50;102102.00;;;26.93;32.29
49030;BME280;43337;52.070;4.508;2022-09-01T13:09:16;102104.00;;;26.91;31.84
49030;BME280;43337;52.070;4.508;2022-09-01T13:11:42;102105.16;;;26.98;32.54
49030;BME280;43337;52.070;4.508;2022-09-01T13:14:08;102082.78;;;26.87;32.00
49030;BME280;43337;52.070;4.508;2022-09-01T13:16:35;102109.13;;;27.04;32.37
49030;BME280;43337;52.070;4.508;2022-09-01T13:19:02;102093.91;;;27.03;32.32
49030;BME280;43337;52.070;4.508;2022-09-01T13:21:29;102099.22;;;27.14;32.31
49030;BME280;43337;52.070;4.508;2022-09-01T13:23:54;102090.97;;;27.25;32.04
49030;BME280;43337;52.070;4.508;2022-09-01T13:26:20;102079.69;;;27.20;32.13
49030;BME280;43337;52.070;4.508;2022-09-01T13:28:46;102067.75;;;27.23;31.61
49030;BME280;43337;52.070;4.508;2022-09-01T13:31:12;102084.25;;;27.30;31.55
49030;BME280;43337;52.070;4.508;2022-09-01T13:33:37;102088.09;;;27.17;31.74
49030;BME280;43337;52.070;4.508;2022-09-01T13:36:03;102080.84;;;27.18;31.79
49030;BME280;43337;52.070;4.508;2022-09-01T13:38:29;102074.44;;;27.19;31.66
49030;BME280;43337;52.070;4.508;2022-09-01T13:40:56;102077.00;;;27.20;31.81
49030;BME280;43337;52.070;4.508;2022-09-01T13:43:23;102085.38;;;27.17;31.02
49030;BME280;43337;52.070;4.508;2022-09-01T13:45:51;102081.25;;;27.13;30.66
49030;BME280;43337;52.070;4.508;2022-09-01T13:48:17;102073.44;;;27.10;31.10
49030;BME280;43337;52.070;4.508;2022-09-01T13:50:44;102059.91;;;27.10;31.10
49030;BME280;43337;52.070;4.508;2022-09-01T13:53:10;102060.94;;;27.19;31.72
49030;BME280;43337;52.070;4.508;2022-09-01T13:55:38;102077.56;;;27.34;30.10
49030;BME280;43337;52.070;4.508;2022-09-01T13:58:04;102072.28;;;27.42;30.74